sensor_id;sensor_type;location;lat;lon;timestamp;temperature;humidity
13980;DHT22;73871;49.900;8.594;2023-11-18T00:01:50;6.30;99.90
13980;DHT22;73871;49.900;8.594;2023-11-18T00:04:17;6.30;99.90
13980;DHT22;73871;49.900;8.594;2023-11-18T00:06:44;6.30;99.90
13980;DHT22;73871;49.900;8.594;2023-11-18T00:09:12;6.30;99.90
13980;DHT22;73871;49.900;8.594;2023-11-18T00:11:41;6.30;99.90
13980;DHT22;73871;49.900;8.594;2023-11-18T00:14:10;6.30;99.90
13980;DHT22;73871;49.900;8.594;2023-11-18T00:16:38;6.30;99.90
13980;DHT22;73871;49.900;8.594;2023-11-18T00:19:05;6.30;99.90
13980;DHT22;73871;49.900;8.594;2023-11-18T00:21:32;6.30;99.90
13980;DHT22;73871;49.900;8.594;2023-11-18T00:23:59;6.20;99.90
13980;DHT22;73871;49.900;8.594;2023-11-18T00:26:26;6.20;99.90
13980;DHT22;73871;49.900;8.594;2023-11-18T00:28:58;6.10;99.90
13980;DHT22;73871;49.900;8.594;2023-11-18T00:31:27;6.10;99.90
13980;DHT22;73871;49.900;8.594;2023-11-18T00:33:54;6.00;99.90
13980;DHT22;73871;49.900;8.594;2023-11-18T00:36:21;6.00;99.90
13980;DHT22;73871;49.900;8.594;2023-11-18T00:38:48;6.10;99.90
13980;DHT22;73871;49.900;8.594;2023-11-18T00:41:15;6.10;99.90
13980;DHT22;73871;49.900;8.594;2023-11-18T00:43:44;6.10;99.90
13980;DHT22;73871;49.900;8.594;2023-11-18T00:46:10;6.20;99.90
13980;DHT22;73871;49.900;8.594;2023-11-18T00:48:37;6.20;99.90
13980;DHT22;73871;49.900;8.594;2023-11-18T00:51:06;6.30;99.90
13980;DHT22;73871;49.900;8.594;2023-11-18T00:53:33;6.30;99.90
13980;DHT22;73871;49.900;8.594;2023-11-18T00:56:00;6.40;99.90
13980;DHT22;73871;49.900;8.594;2023-11-18T00:58:28;6.40;99.90
13980;DHT22;73871;49.900;8.594;2023-11-18T01:00:55;6.40;99.90
13980;DHT22;73871;49.900;8.594;2023-11-18T01:03:22;6.40;99.90
13980;DHT22;73871;49.900;8.594;2023-11-18T01:05:49;6.40;99.90
13980;DHT22;73871;49.900;8.594;2023-11-18T01:08:17;6.30;99.90
13980;DHT22;73871;49.900;8.594;2023-11-18T01:10:44;6.30;99.90
13980;DHT22;73871;49.900;8.594;2023-11-18T01:13:11;6.30;99.90
13980;DHT22;73871;49.900;8.594;2023-11-18T01:15:38;6.20;99.90
13980;DHT22;73871;49.900;8.594;2023-11-18T01:18:05;6.20;99.90
13980;DHT22;73871;49.900;8.594;2023-11-18T01:20:33;6.20;99.90
13980;DHT22;73871;49.900;8.594;2023-11-18T01:22:59;6.20;99.90
13980;DHT22;73871;49.900;8.594;2023-11-18T01:25:26;6.20;99.90
13980;DHT22;73871;49.900;8.594;2023-11-18T01:27:54;6.20;99.90
13980;DHT22;73871;49.900;8.594;2023-11-18T01:30:21;6.20;99.90
13980;DHT22;73871;49.900;8.594;2023-11-18T01:32:50;6.20;99.90
13980;DHT22;73871;49.900;8.594;2023-11-18T01:35:17;6.20;99.90
13980;DHT22;73871;49.900;8.594;2023-11-18T01:37:44;6.20;99.90
13980;DHT22;73871;49.900;8.594;2023-11-18T01:40:11;6.20;99.90
13980;DHT22;73871;49.900;8.594;2023-11-18T01:42:43;6.10;99.90
13980;DHT22;73871;49.900;8.594;2023-11-18T01:45:10;6.10;99.90
13980;DHT22;73871;49.900;8.594;2023-11-18T01:47:40;6.20;99.90
13980;DHT22;73871;49.900;8.594;2023-11-18T01:50:09;6.20;99.90
13980;DHT22;73871;49.900;8.594;2023-11-18T01:52:36;6.30;99.90
13980;DHT22;73871;49.900;8.594;2023-11-18T01:55:05;6.30;99.90
13980;DHT22;73871;49.900;8.594;2023-11-18T01:57:35;6.40;99.90
13980;DHT22;73871;49.900;8.594;2023-11-18T02:00:04;6.40;99.90
13980;DHT22;73871;49.900;8.594;2023-11-18T02:02:38;6.40;99.90
13980;DHT22;73871;49.900;8.594;2023-11-18T02:05:06;6.30;99.90
13980;DHT22;73871;49.900;8.594;2023-11-18T02:07:34;6.30;99.90
13980;DHT22;73871;49.900;8.594;2023-11-18T02:10:04;6.30;99.90
13980;DHT22;73871;49.900;8.594;2023-11-18T02:13:04;6.30;99.90
13980;DHT22;73871;49.900;8.594;2023-11-18T02:15:34;6.10;99.90
13980;DHT22;73871;49.900;8.594;2023-11-18T02:18:03;6.00;99.90
13980;DHT22;73871;49.900;8.594;2023-11-18T02:20:33;5.90;99.90
13980;DHT22;73871;49.900;8.594;2023-11-18T02:23:01;5.70;99.90
13980;DHT22;73871;49.900;8.594;2023-11-18T02:25:29;5.60;99.90
13980;DHT22;73871;49.900;8.594;2023-11-18T02:27:59;5.50;99.90
13980;DHT22;73871;49.900;8.594;2023-11-18T02:30:26;5.40;99.90
13980;DHT22;73871;49.900;8.594;2023-11-18T02:33:00;5.40;99.90
13980;DHT22;73871;49.900;8.594;2023-11-18T02:35:37;5.30;99.90
13980;DHT22;73871;49.900;8.594;2023-11-18T02:38:04;5.30;99.90
13980;DHT22;73871;49.900;8.594;2023-11-18T02:40:37;5.30;99.90
13980;DHT22;73871;49.900;8.594;2023-11-18T02:43:05;5.30;99.90
13980;DHT22;73871;49.900;8.594;2023-11-18T02:45:33;5.20;99.90
13980;DHT22;73871;49.900;8.594;2023-11-18T02:48:01;5.20;99.90
13980;DHT22;73871;49.900;8.594;2023-11-18T02:50:28;5.10;99.90
13980;DHT22;73871;49.900;8.594;2023-11-18T02:52:55;5.10;99.90
13980;DHT22;73871;49.900;8.594;2023-11-18T02:55:22;5.10;99.90
13980;DHT22;73871;49.900;8.594;2023-11-18T02:57:51;5.00;99.90
13980;DHT22;73871;49.900;8.594;2023-11-18T03:00:20;5.00;99.90
13980;DHT22;73871;49.900;8.594;2023-11-18T03:02:50;4.90;99.90
13980;DHT22;73871;49.900;8.594;2023-11-18T03:05:19;4.90;99.90
13980;DHT22;73871;49.900;8.594;2023-11-18T03:07:46;4.80;99.90
13980;DHT22;73871;49.900;8.594;2023-11-18T03:10:17;4.70;99.90
13980;DHT22;73871;49.900;8.594;2023-11-18T03:12:53;4.70;99.90
13980;DHT22;73871;49.900;8.594;2023-11-18T03:15:21;4.60;99.90
13980;DHT22;73871;49.900;8.594;2023-11-18T03:17:50;4.60;99.90
13980;DHT22;73871;49.900;8.594;2023-11-18T03:20:19;4.50;99.90
13980;DHT22;73871;49.900;8.594;2023-11-18T03:22:47;4.50;99.90
13980;DHT22;73871;49.900;8.594;2023-11-18T03:25:14;4.40;99.90
13980;DHT22;73871;49.900;8.594;2023-11-18T03:27:42;4.40;99.90
13980;DHT22;73871;49.900;8.594;2023-11-18T03:30:09;4.30;99.90
13980;DHT22;73871;49.900;8.594;2023-11-18T03:32:37;4.30;99.90
13980;DHT22;73871;49.900;8.594;2023-11-18T03:35:06;4.20;99.90
13980;DHT22;73871;49.900;8.594;2023-11-18T03:37:37;4.20;99.90
13980;DHT22;73871;49.900;8.594;2023-11-18T03:40:10;4.10;99.90
13980;DHT22;73871;49.900;8.594;2023-11-18T03:42:42;4.20;99.90
13980;DHT22;73871;49.900;8.594;2023-11-18T03:45:09;4.10;99.90
13980;DHT22;73871;49.900;8.594;2023-11-18T03:47:37;4.10;99.90
13980;DHT22;73871;49.900;8.594;2023-11-18T03:50:04;4.20;99.90
13980;DHT22;73871;49.900;8.594;2023-11-18T03:52:32;4.30;99.90
13980;DHT22;73871;49.900;8.594;2023-11-18T03:54:58;4.40;99.90
13980;DHT22;73871;49.900;8.594;2023-11-18T03:57:25;4.50;99.90
13980;DHT22;73871;49.900;8.594;2023-11-18T03:59:52;4.50;99.90
13980;DHT22;73871;49.900;8.594;2023-11-18T04:02:19;4.60;99.90
13980;DHT22;73871;49.900;8.594;2023-11-18T04:04:46;4.70;99.90
13980;DHT22;73871;49.900;8.594;2023-11-18T04:07:13;4.80;99.90
13980;DHT22;73871;49.900;8.594;2023-11-18T04:09:39;4.90;99.90
13980;DHT22;73871;49.900;8.594;2023-11-18T04:12:08;4.90;99.90
13980;DHT22;73871;49.900;8.594;2023-11-18T04:14:36;4.90;99.90
13980;DHT22;73871;49.900;8.594;2023-11-18T04:17:03;5.00;99.90
13980;DHT22;73871;49.900;8.594;2023-11-18T04:19:30;5.10;99.90
13980;DHT22;73871;49.900;8.594;2023-11-18T04:21:57;5.10;99.90
13980;DHT22;73871;49.900;8.594;2023-11-18T04:24:23;5.10;99.90
13980;DHT22;73871;49.900;8.594;2023-11-18T04:26:50;5.10;99.90
13980;DHT22;73871;49.900;8.594;2023-11-18T04:29:17;5.10;99.90
13980;DHT22;73871;49.900;8.594;2023-11-18T04:31:45;5.10;99.90
13980;DHT22;73871;49.900;8.594;2023-11-18T04:34:11;5.10;99.90
13980;DHT22;73871;49.900;8.594;2023-11-18T04:36:41;5.10;99.90
13980;DHT22;73871;49.900;8.594;2023-11-18T04:39:08;5.10;99.90
13980;DHT22;73871;49.900;8.594;2023-11-18T04:41:34;5.00;99.90
13980;DHT22;73871;49.900;8.594;2023-11-18T04:44:03;5.10;99.90
13980;DHT22;73871;49.900;8.594;2023-11-18T04:46:29;5.10;99.90
13980;DHT22;73871;49.900;8.594;2023-11-18T04:48:56;5.00;99.90
13980;DHT22;73871;49.900;8.594;2023-11-18T04:51:23;5.00;99.90
13980;DHT22;73871;49.900;8.594;2023-11-18T04:53:50;5.00;99.90
13980;DHT22;73871;49.900;8.594;2023-11-18T04:56:17;5.00;99.90
13980;DHT22;73871;49.900;8.594;2023-11-18T04:58:46;5.00;99.90
13980;DHT22;73871;49.900;8.594;2023-11-18T05:01:14;5.00;99.90
13980;DHT22;73871;49.900;8.594;2023-11-18T05:03:41;5.10;99.90
13980;DHT22;73871;49.900;8.594;2023-11-18T05:06:08;5.00;99.90
13980;DHT22;73871;49.900;8.594;2023-11-18T05:08:35;5.00;99.90
13980;DHT22;73871;49.900;8.594;2023-11-18T05:11:03;4.90;99.90
13980;DHT22;73871;49.900;8.594;2023-11-18T05:13:31;4.80;99.90
13980;DHT22;73871;49.900;8.594;2023-11-18T05:16:00;4.70;99.90
13980;DHT22;73871;49.900;8.594;2023-11-18T05:18:27;4.70;99.90
13980;DHT22;73871;49.900;8.594;2023-11-18T05:20:56;4.80;99.90
13980;DHT22;73871;49.900;8.594;2023-11-18T05:23:23;4.70;99.90
13980;DHT22;73871;49.900;8.594;2023-11-18T05:25:50;4.60;99.90
13980;DHT22;73871;49.900;8.594;2023-11-18T05:28:17;4.60;99.90
13980;DHT22;73871;49.900;8.594;2023-11-18T05:30:44;4.50;99.90
13980;DHT22;73871;49.900;8.594;2023-11-18T05:33:11;4.50;99.90
13980;DHT22;73871;49.900;8.594;2023-11-18T05:35:47;4.50;99.90
13980;DHT22;73871;49.900;8.594;2023-11-18T05:38:17;4.40;99.90
13980;DHT22;73871;49.900;8.594;2023-11-18T05:40:46;4.50;99.90
13980;DHT22;73871;49.900;8.594;2023-11-18T05:43:24;4.50;99.90
13980;DHT22;73871;49.900;8.594;2023-11-18T05:45:55;4.40;99.90
13980;DHT22;73871;49.900;8.594;2023-11-18T05:48:44;4.50;99.90
13980;DHT22;73871;49.900;8.594;2023-11-18T05:51:11;4.40;99.90
13980;DHT22;73871;49.900;8.594;2023-11-18T05:53:41;4.40;99.90
13980;DHT22;73871;49.900;8.594;2023-11-18T05:56:12;4.30;99.90
13980;DHT22;73871;49.900;8.594;2023-11-18T05:58:39;4.40;99.90
13980;DHT22;73871;49.900;8.594;2023-11-18T06:01:06;4.50;99.90
13980;DHT22;73871;49.900;8.594;2023-11-18T06:03:38;4.50;99.90
13980;DHT22;73871;49.900;8.594;2023-11-18T06:06:07;4.60;99.90
13980;DHT22;73871;49.900;8.594;2023-11-18T06:08:38;4.60;99.90
13980;DHT22;73871;49.900;8.594;2023-11-18T06:11:13;4.60;99.90
13980;DHT22;73871;49.900;8.594;2023-11-18T06:13:50;4.60;99.90
13980;DHT22;73871;49.900;8.594;2023-11-18T06:16:24;4.60;99.90
13980;DHT22;73871;49.900;8.594;2023-11-18T06:18:57;4.60;99.90
13980;DHT22;73871;49.900;8.594;2023-11-18T06:21:26;4.70;99.90
13980;DHT22;73871;49.900;8.594;2023-11-18T06:24:01;4.70;99.90
13980;DHT22;73871;49.900;8.594;2023-11-18T06:26:30;4.70;99.90
13980;DHT22;73871;49.900;8.594;2023-11-18T06:28:57;4.80;99.90
13980;DHT22;73871;49.900;8.594;2023-11-18T06:31:25;4.80;99.90
13980;DHT22;73871;49.900;8.594;2023-11-18T06:33:52;4.80;99.90
13980;DHT22;73871;49.900;8.594;2023-11-18T06:36:19;4.70;99.90
13980;DHT22;73871;49.900;8.594;2023-11-18T06:38:50;4.70;99.90
13980;DHT22;73871;49.900;8.594;2023-11-18T06:41:21;4.70;99.90
13980;DHT22;73871;49.900;8.594;2023-11-18T06:43:53;4.70;99.90
13980;DHT22;73871;49.900;8.594;2023-11-18T06:46:20;4.70;99.90
13980;DHT22;73871;49.900;8.594;2023-11-18T06:48:54;4.80;99.90
13980;DHT22;73871;49.900;8.594;2023-11-18T06:51:21;4.80;99.90
13980;DHT22;73871;49.900;8.594;2023-11-18T06:53:51;4.90;99.90
13980;DHT22;73871;49.900;8.594;2023-11-18T06:56:18;4.90;99.90
13980;DHT22;73871;49.900;8.594;2023-11-18T06:58:45;5.00;99.90
13980;DHT22;73871;49.900;8.594;2023-11-18T07:01:15;5.00;99.90
13980;DHT22;73871;49.900;8.594;2023-11-18T07:03:43;5.00;99.90
13980;DHT22;73871;49.900;8.594;2023-11-18T07:06:10;5.10;99.90
13980;DHT22;73871;49.900;8.594;2023-11-18T07:08:40;5.20;99.90
13980;DHT22;73871;49.900;8.594;2023-11-18T07:11:07;5.30;99.90
13980;DHT22;73871;49.900;8.594;2023-11-18T07:13:34;5.40;99.90
13980;DHT22;73871;49.900;8.594;2023-11-18T07:16:01;5.40;99.90
13980;DHT22;73871;49.900;8.594;2023-11-18T07:18:31;5.50;99.90
13980;DHT22;73871;49.900;8.594;2023-11-18T07:21:01;5.40;99.90
13980;DHT22;73871;49.900;8.594;2023-11-18T07:23:31;5.40;99.90
13980;DHT22;73871;49.900;8.594;2023-11-18T07:25:59;5.40;99.90
13980;DHT22;73871;49.900;8.594;2023-11-18T07:28:26;5.50;99.90
13980;DHT22;73871;49.900;8.594;2023-11-18T07:30:53;5.50;99.90
13980;DHT22;73871;49.900;8.594;2023-11-18T07:33:20;5.60;99.90
13980;DHT22;73871;49.900;8.594;2023-11-18T07:35:48;5.80;99.90
13980;DHT22;73871;49.900;8.594;2023-11-18T07:38:15;5.80;99.90
13980;DHT22;73871;49.900;8.594;2023-11-18T07:40:42;5.80;99.90
13980;DHT22;73871;49.900;8.594;2023-11-18T07:43:13;5.90;99.90
13980;DHT22;73871;49.900;8.594;2023-11-18T07:45:41;6.00;99.90
13980;DHT22;73871;49.900;8.594;2023-11-18T07:48:09;6.10;99.90
13980;DHT22;73871;49.900;8.594;2023-11-18T07:50:41;6.20;99.90
13980;DHT22;73871;49.900;8.594;2023-11-18T07:53:08;6.30;99.90
13980;DHT22;73871;49.900;8.594;2023-11-18T07:55:35;6.30;99.90
13980;DHT22;73871;49.900;8.594;2023-11-18T07:58:09;6.40;99.90
13980;DHT22;73871;49.900;8.594;2023-11-18T08:00:43;6.50;99.90
13980;DHT22;73871;49.900;8.594;2023-11-18T08:03:12;6.60;99.90
13980;DHT22;73871;49.900;8.594;2023-11-18T08:05:40;6.60;99.90
13980;DHT22;73871;49.900;8.594;2023-11-18T08:08:07;6.70;99.90
13980;DHT22;73871;49.900;8.594;2023-11-18T08:10:34;6.80;99.90
13980;DHT22;73871;49.900;8.594;2023-11-18T08:13:05;6.80;99.90
13980;DHT22;73871;49.900;8.594;2023-11-18T08:15:43;6.80;99.90
13980;DHT22;73871;49.900;8.594;2023-11-18T08:18:13;6.80;99.90
13980;DHT22;73871;49.900;8.594;2023-11-18T08:20:40;6.80;99.90
13980;DHT22;73871;49.900;8.594;2023-11-18T08:23:07;6.80;99.90
13980;DHT22;73871;49.900;8.594;2023-11-18T08:25:34;6.80;99.90
13980;DHT22;73871;49.900;8.594;2023-11-18T08:28:08;6.80;99.90
13980;DHT22;73871;49.900;8.594;2023-11-18T08:30:37;7.00;99.90
13980;DHT22;73871;49.900;8.594;2023-11-18T08:33:04;6.90;99.90
13980;DHT22;73871;49.900;8.594;2023-11-18T08:35:32;6.90;99.90
13980;DHT22;73871;49.900;8.594;2023-11-18T08:37:59;6.90;99.90
13980;DHT22;73871;49.900;8.594;2023-11-18T08:40:27;6.90;99.90
13980;DHT22;73871;49.900;8.594;2023-11-18T08:42:54;6.90;99.90
13980;DHT22;73871;49.900;8.594;2023-11-18T08:45:24;6.90;99.90
13980;DHT22;73871;49.900;8.594;2023-11-18T08:47:56;6.90;99.90
13980;DHT22;73871;49.900;8.594;2023-11-18T08:50:24;6.90;99.90
13980;DHT22;73871;49.900;8.594;2023-11-18T08:52:54;6.90;99.90
13980;DHT22;73871;49.900;8.594;2023-11-18T08:55:29;7.00;99.90
13980;DHT22;73871;49.900;8.594;2023-11-18T08:58:17;7.20;99.90
13980;DHT22;73871;49.900;8.594;2023-11-18T09:00:53;7.30;99.90
13980;DHT22;73871;49.900;8.594;2023-11-18T09:03:23;7.30;99.90
13980;DHT22;73871;49.900;8.594;2023-11-18T09:06:06;7.30;99.90
13980;DHT22;73871;49.900;8.594;2023-11-18T09:08:45;7.40;99.90
13980;DHT22;73871;49.900;8.594;2023-11-18T09:11:14;7.40;99.90
13980;DHT22;73871;49.900;8.594;2023-11-18T09:13:48;7.50;99.90
13980;DHT22;73871;49.900;8.594;2023-11-18T09:16:17;7.50;99.90
13980;DHT22;73871;49.900;8.594;2023-11-18T09:18:47;7.60;99.90
13980;DHT22;73871;49.900;8.594;2023-11-18T09:21:14;7.60;99.90
13980;DHT22;73871;49.900;8.594;2023-11-18T09:23:43;7.70;99.90
13980;DHT22;73871;49.900;8.594;2023-11-18T09:26:10;7.60;99.90
13980;DHT22;73871;49.900;8.594;2023-11-18T09:28:38;7.60;99.90
13980;DHT22;73871;49.900;8.594;2023-11-18T09:31:06;7.60;99.90
13980;DHT22;73871;49.900;8.594;2023-11-18T09:33:39;7.70;99.90
13980;DHT22;73871;49.900;8.594;2023-11-18T09:36:08;7.70;99.90
13980;DHT22;73871;49.900;8.594;2023-11-18T09:38:36;7.80;99.90
13980;DHT22;73871;49.900;8.594;2023-11-18T09:41:04;7.90;99.90
13980;DHT22;73871;49.900;8.594;2023-11-18T09:43:34;8.00;99.90
13980;DHT22;73871;49.900;8.594;2023-11-18T09:48:48;7.80;99.90
13980;DHT22;73871;49.900;8.594;2023-11-18T09:51:24;7.80;99.90
13980;DHT22;73871;49.900;8.594;2023-11-18T09:53:52;7.80;99.90
13980;DHT22;73871;49.900;8.594;2023-11-18T09:56:28;7.90;99.90
13980;DHT22;73871;49.900;8.594;2023-11-18T09:59:18;8.00;99.90
13980;DHT22;73871;49.900;8.594;2023-11-18T10:01:50;8.00;99.90
13980;DHT22;73871;49.900;8.594;2023-11-18T10:04:20;7.90;99.90
13980;DHT22;73871;49.900;8.594;2023-11-18T10:06:47;8.00;99.90
13980;DHT22;73871;49.900;8.594;2023-11-18T10:09:16;8.10;99.90
13980;DHT22;73871;49.900;8.594;2023-11-18T10:11:47;8.10;99.90
13980;DHT22;73871;49.900;8.594;2023-11-18T10:14:14;8.00;99.90
13980;DHT22;73871;49.900;8.594;2023-11-18T10:16:44;8.10;99.90
13980;DHT22;73871;49.900;8.594;2023-11-18T10:19:14;8.00;99.90
13980;DHT22;73871;49.900;8.594;2023-11-18T10:21:44;8.10;99.90
13980;DHT22;73871;49.900;8.594;2023-11-18T10:24:16;8.10;99.90
13980;DHT22;73871;49.900;8.594;2023-11-18T10:26:56;8.20;99.90
13980;DHT22;73871;49.900;8.594;2023-11-18T10:29:26;8.20;99.90
13980;DHT22;73871;49.900;8.594;2023-11-18T10:32:04;8.20;99.90
13980;DHT22;73871;49.900;8.594;2023-11-18T10:34:35;8.20;99.90
13980;DHT22;73871;49.900;8.594;2023-11-18T10:37:02;8.20;99.90
13980;DHT22;73871;49.900;8.594;2023-11-18T10:39:29;8.20;99.90
13980;DHT22;73871;49.900;8.594;2023-11-18T10:42:01;8.20;99.90
13980;DHT22;73871;49.900;8.594;2023-11-18T10:44:28;8.20;99.90
13980;DHT22;73871;49.900;8.594;2023-11-18T10:46:58;8.30;99.90
13980;DHT22;73871;49.900;8.594;2023-11-18T10:49:29;8.30;99.90
13980;DHT22;73871;49.900;8.594;2023-11-18T10:52:04;8.40;99.90
13980;DHT22;73871;49.900;8.594;2023-11-18T10:54:33;8.60;99.90
13980;DHT22;73871;49.900;8.594;2023-11-18T10:57:01;8.70;99.90
13980;DHT22;73871;49.900;8.594;2023-11-18T10:59:34;8.80;99.90
13980;DHT22;73871;49.900;8.594;2023-11-18T11:02:01;8.80;99.90
13980;DHT22;73871;49.900;8.594;2023-11-18T11:04:44;8.80;99.90
13980;DHT22;73871;49.900;8.594;2023-11-18T11:07:12;9.00;99.90
13980;DHT22;73871;49.900;8.594;2023-11-18T11:09:40;8.90;99.90
13980;DHT22;73871;49.900;8.594;2023-11-18T11:12:12;8.90;99.90
13980;DHT22;73871;49.900;8.594;2023-11-18T11:14:59;8.90;99.90
13980;DHT22;73871;49.900;8.594;2023-11-18T11:17:30;8.90;99.90
13980;DHT22;73871;49.900;8.594;2023-11-18T11:20:07;8.90;99.90
13980;DHT22;73871;49.900;8.594;2023-11-18T11:22:48;8.70;99.90
13980;DHT22;73871;49.900;8.594;2023-11-18T11:25:24;8.80;99.90
13980;DHT22;73871;49.900;8.594;2023-11-18T11:28:00;8.80;99.90
13980;DHT22;73871;49.900;8.594;2023-11-18T11:33:42;8.70;99.90
13980;DHT22;73871;49.900;8.594;2023-11-18T11:36:12;8.60;99.90
13980;DHT22;73871;49.900;8.594;2023-11-18T11:38:44;8.60;99.90
13980;DHT22;73871;49.900;8.594;2023-11-18T11:41:14;8.60;99.90
13980;DHT22;73871;49.900;8.594;2023-11-18T11:43:52;8.60;99.90
13980;DHT22;73871;49.900;8.594;2023-11-18T11:46:22;8.60;99.90
13980;DHT22;73871;49.900;8.594;2023-11-18T11:48:52;8.60;99.90
13980;DHT22;73871;49.900;8.594;2023-11-18T11:51:26;8.60;99.90
13980;DHT22;73871;49.900;8.594;2023-11-18T11:54:11;8.70;99.90
13980;DHT22;73871;49.900;8.594;2023-11-18T11:56:43;8.70;99.90
13980;DHT22;73871;49.900;8.594;2023-11-18T11:59:10;8.80;99.90
13980;DHT22;73871;49.900;8.594;2023-11-18T12:01:41;8.80;99.90
13980;DHT22;73871;49.900;8.594;2023-11-18T12:04:17;8.80;99.90
13980;DHT22;73871;49.900;8.594;2023-11-18T12:06:55;8.90;99.90
13980;DHT22;73871;49.900;8.594;2023-11-18T12:09:38;9.00;99.90
13980;DHT22;73871;49.900;8.594;2023-11-18T12:12:05;8.90;99.90
13980;DHT22;73871;49.900;8.594;2023-11-18T12:14:51;8.90;99.90
13980;DHT22;73871;49.900;8.594;2023-11-18T12:17:27;8.80;99.90
13980;DHT22;73871;49.900;8.594;2023-11-18T12:19:59;8.70;99.90
13980;DHT22;73871;49.900;8.594;2023-11-18T12:22:27;8.70;99.90
13980;DHT22;73871;49.900;8.594;2023-11-18T12:33:04;8.60;99.90
13980;DHT22;73871;49.900;8.594;2023-11-18T12:36:14;8.60;99.90
13980;DHT22;73871;49.900;8.594;2023-11-18T12:41:38;8.70;99.90
13980;DHT22;73871;49.900;8.594;2023-11-18T12:44:30;8.60;99.90
13980;DHT22;73871;49.900;8.594;2023-11-18T12:47:05;8.50;99.90
13980;DHT22;73871;49.900;8.594;2023-11-18T12:49:42;8.50;99.90
13980;DHT22;73871;49.900;8.594;2023-11-18T12:52:11;8.50;99.90
13980;DHT22;73871;49.900;8.594;2023-11-18T12:54:40;8.50;99.90
13980;DHT22;73871;49.900;8.594;2023-11-18T12:57:10;8.50;99.90
13980;DHT22;73871;49.900;8.594;2023-11-18T12:59:41;8.40;99.90
13980;DHT22;73871;49.900;8.594;2023-11-18T13:02:08;8.50;99.90
13980;DHT22;73871;49.900;8.594;2023-11-18T13:04:40;8.50;99.90
13980;DHT22;73871;49.900;8.594;2023-11-18T13:07:08;8.50;99.90
13980;DHT22;73871;49.900;8.594;2023-11-18T13:09:35;8.50;99.90
13980;DHT22;73871;49.900;8.594;2023-11-18T13:12:03;8.50;99.90
13980;DHT22;73871;49.900;8.594;2023-11-18T13:14:36;8.60;99.90
13980;DHT22;73871;49.900;8.594;2023-11-18T13:17:04;8.60;99.90
13980;DHT22;73871;49.900;8.594;2023-11-18T13:19:32;8.60;99.90
13980;DHT22;73871;49.900;8.594;2023-11-18T13:22:02;8.60;99.90
13980;DHT22;73871;49.900;8.594;2023-11-18T13:24:36;8.60;99.90
13980;DHT22;73871;49.900;8.594;2023-11-18T13:27:08;8.60;99.90
13980;DHT22;73871;49.900;8.594;2023-11-18T13:29:36;8.60;99.90
13980;DHT22;73871;49.900;8.594;2023-11-18T13:32:06;8.60;99.90
13980;DHT22;73871;49.900;8.594;2023-11-18T13:34:37;8.70;99.90
13980;DHT22;73871;49.900;8.594;2023-11-18T13:37:06;8.70;99.90
13980;DHT22;73871;49.900;8.594;2023-11-18T13:39:34;8.70;99.90
13980;DHT22;73871;49.900;8.594;2023-11-18T13:42:21;8.70;99.90
13980;DHT22;73871;49.900;8.594;2023-11-18T13:44:49;8.80;99.90
13980;DHT22;73871;49.900;8.594;2023-11-18T13:47:17;8.80;99.90
13980;DHT22;73871;49.900;8.594;2023-11-18T13:49:44;8.80;99.90
13980;DHT22;73871;49.900;8.594;2023-11-18T13:52:13;8.80;99.90
13980;DHT22;73871;49.900;8.594;2023-11-18T13:54:43;8.80;99.90
13980;DHT22;73871;49.900;8.594;2023-11-18T13:57:11;8.80;99.90
13980;DHT22;73871;49.900;8.594;2023-11-18T13:59:39;8.80;99.90
13980;DHT22;73871;49.900;8.594;2023-11-18T14:02:06;8.80;99.90
13980;DHT22;73871;49.900;8.594;2023-11-18T14:04:35;8.80;99.90
13980;DHT22;73871;49.900;8.594;2023-11-18T14:07:04;8.90;99.90
13980;DHT22;73871;49.900;8.594;2023-11-18T14:09:32;8.80;99.90
13980;DHT22;73871;49.900;8.594;2023-11-18T14:12:08;8.80;99.90
13980;DHT22;73871;49.900;8.594;2023-11-18T14:14:35;8.80;99.90
13980;DHT22;73871;49.900;8.594;2023-11-18T14:17:02;8.80;99.90
13980;DHT22;73871;49.900;8.594;2023-11-18T14:19:29;8.80;99.90
13980;DHT22;73871;49.900;8.594;2023-11-18T14:21:56;8.70;99.90
13980;DHT22;73871;49.900;8.594;2023-11-18T14:24:23;8.80;99.90
13980;DHT22;73871;49.900;8.594;2023-11-18T14:26:54;8.80;99.90
13980;DHT22;73871;49.900;8.594;2023-11-18T14:29:21;8.70;99.90
13980;DHT22;73871;49.900;8.594;2023-11-18T14:31:51;8.70;99.90
13980;DHT22;73871;49.900;8.594;2023-11-18T14:34:18;8.70;99.90
13980;DHT22;73871;49.900;8.594;2023-11-18T14:36:44;8.80;99.90
13980;DHT22;73871;49.900;8.594;2023-11-18T14:39:11;8.80;99.90
13980;DHT22;73871;49.900;8.594;2023-11-18T14:41:41;8.80;99.90
13980;DHT22;73871;49.900;8.594;2023-11-18T14:44:10;8.80;99.90
13980;DHT22;73871;49.900;8.594;2023-11-18T14:46:38;8.70;99.90
13980;DHT22;73871;49.900;8.594;2023-11-18T14:49:07;8.70;99.90
13980;DHT22;73871;49.900;8.594;2023-11-18T14:51:34;8.70;99.90
13980;DHT22;73871;49.900;8.594;2023-11-18T14:54:02;8.80;99.90
13980;DHT22;73871;49.900;8.594;2023-11-18T14:56:29;8.80;99.90
13980;DHT22;73871;49.900;8.594;2023-11-18T14:58:56;8.80;99.90
13980;DHT22;73871;49.900;8.594;2023-11-18T15:01:23;8.70;99.90
13980;DHT22;73871;49.900;8.594;2023-11-18T15:03:50;8.70;99.90
13980;DHT22;73871;49.900;8.594;2023-11-18T15:06:27;8.70;99.90
13980;DHT22;73871;49.900;8.594;2023-11-18T15:08:54;8.70;99.90
13980;DHT22;73871;49.900;8.594;2023-11-18T15:11:23;8.70;99.90
13980;DHT22;73871;49.900;8.594;2023-11-18T15:13:51;8.70;99.90
13980;DHT22;73871;49.900;8.594;2023-11-18T15:16:20;8.70;99.90
13980;DHT22;73871;49.900;8.594;2023-11-18T15:18:47;8.60;99.90
13980;DHT22;73871;49.900;8.594;2023-11-18T15:21:14;8.60;99.90
13980;DHT22;73871;49.900;8.594;2023-11-18T15:23:42;8.60;99.90
13980;DHT22;73871;49.900;8.594;2023-11-18T15:26:09;8.50;99.90
13980;DHT22;73871;49.900;8.594;2023-11-18T15:28:36;8.50;99.90
13980;DHT22;73871;49.900;8.594;2023-11-18T15:31:03;8.40;99.90
13980;DHT22;73871;49.900;8.594;2023-11-18T15:33:31;8.40;99.90
13980;DHT22;73871;49.900;8.594;2023-11-18T15:35:58;8.40;99.90
13980;DHT22;73871;49.900;8.594;2023-11-18T15:38:25;8.40;99.90
13980;DHT22;73871;49.900;8.594;2023-11-18T15:40:52;8.30;99.90
13980;DHT22;73871;49.900;8.594;2023-11-18T15:43:20;8.30;99.90
13980;DHT22;73871;49.900;8.594;2023-11-18T15:45:48;8.20;99.90
13980;DHT22;73871;49.900;8.594;2023-11-18T15:48:15;8.20;99.90
13980;DHT22;73871;49.900;8.594;2023-11-18T15:50:42;8.20;99.90
13980;DHT22;73871;49.900;8.594;2023-11-18T15:53:09;8.10;99.90
13980;DHT22;73871;49.900;8.594;2023-11-18T15:55:40;8.10;99.90
13980;DHT22;73871;49.900;8.594;2023-11-18T15:58:08;8.10;99.90
13980;DHT22;73871;49.900;8.594;2023-11-18T16:00:36;8.00;99.90
13980;DHT22;73871;49.900;8.594;2023-11-18T16:03:04;8.00;99.90
13980;DHT22;73871;49.900;8.594;2023-11-18T16:05:35;8.00;99.90
13980;DHT22;73871;49.900;8.594;2023-11-18T16:08:03;8.00;99.90
13980;DHT22;73871;49.900;8.594;2023-11-18T16:10:31;8.00;99.90
13980;DHT22;73871;49.900;8.594;2023-11-18T16:13:00;7.90;99.90
13980;DHT22;73871;49.900;8.594;2023-11-18T16:15:28;7.90;99.90
13980;DHT22;73871;49.900;8.594;2023-11-18T16:17:56;7.90;99.90